createdAt,value
2023-03-29T00:02:13.972Z,45.31
2023-03-29T00:04:41.275Z,45.87
2023-03-29T00:07:08.229Z,45.38
2023-03-29T00:09:34.849Z,44.79
2023-03-29T00:12:01.753Z,44.61
2023-03-29T00:14:30.505Z,44.90
2023-03-29T00:16:58.681Z,45.74
2023-03-29T00:19:25.640Z,45.72
2023-03-29T00:21:52.447Z,45.46
2023-03-29T00:24:20.992Z,45.05
2023-03-29T00:26:47.752Z,44.83
2023-03-29T00:29:14.308Z,45.40
2023-03-29T00:31:41.241Z,45.23
2023-03-29T00:34:07.910Z,46.16
2023-03-29T00:36:34.590Z,46.57
2023-03-29T00:39:01.334Z,44.73
2023-03-29T00:41:28.143Z,45.60
2023-03-29T00:44:00.740Z,46.59
2023-03-29T00:46:30.305Z,46.58
2023-03-29T00:49:08.898Z,46.59
2023-03-29T00:51:41.400Z,47.11
2023-03-29T00:54:14.635Z,48.45
2023-03-29T00:56:44.817Z,48.45
2023-03-29T00:59:19.595Z,48.56
2023-03-29T01:01:57.421Z,47.90
2023-03-29T01:04:37.168Z,48.21
2023-03-29T01:07:41.152Z,48.03
2023-03-29T01:10:44.802Z,48.74
2023-03-29T01:13:18.283Z,47.93
2023-03-29T01:15:46.928Z,47.77
2023-03-29T01:18:15.820Z,47.79
2023-03-29T01:21:10.300Z,48.03
2023-03-29T01:24:06.857Z,48.09
2023-03-29T01:26:57.095Z,48.68
2023-03-29T01:29:45.661Z,48.31
2023-03-29T01:32:18.610Z,46.08
2023-03-29T01:35:00.172Z,45.59
2023-03-29T01:37:33.055Z,45.59
2023-03-29T01:40:01.188Z,47.20
2023-03-29T01:42:37.068Z,47.25
2023-03-29T01:45:17.326Z,47.50
2023-03-29T01:47:56.017Z,47.07
2023-03-29T01:50:38.032Z,47.57
2023-03-29T01:53:20.257Z,47.71
2023-03-29T01:55:55.245Z,47.79
2023-03-29T01:58:29.503Z,48.30
2023-03-29T02:00:58.312Z,47.53
2023-03-29T02:03:30.965Z,47.21
2023-03-29T02:06:00.309Z,48.21
2023-03-29T02:08:29.789Z,47.81
2023-03-29T02:10:57.921Z,48.00
2023-03-29T02:13:24.615Z,47.38
2023-03-29T02:15:51.353Z,48.05
2023-03-29T02:18:19.857Z,48.74
2023-03-29T02:20:50.667Z,47.83
2023-03-29T02:23:24.554Z,49.12
2023-03-29T02:25:56.904Z,49.18
2023-03-29T02:28:27.086Z,49.05
2023-03-29T02:31:20.258Z,48.59
2023-03-29T02:34:02.408Z,48.03
2023-03-29T02:36:41.435Z,48.24
2023-03-29T02:39:10.521Z,48.79
2023-03-29T02:41:38.633Z,49.01
2023-03-29T02:44:10.455Z,49.21
2023-03-29T02:46:38.381Z,49.31
2023-03-29T02:49:05.779Z,49.50
2023-03-29T02:51:34.120Z,49.93
2023-03-29T02:54:13.960Z,49.46
2023-03-29T02:56:57.679Z,48.63
2023-03-29T02:59:24.523Z,48.70
2023-03-29T03:01:52.520Z,49.77
2023-03-29T03:04:22.790Z,50.36
2023-03-29T03:06:50.013Z,50.49
2023-03-29T03:09:17.276Z,50.58
2023-03-29T03:11:46.690Z,50.58
2023-03-29T03:14:13.482Z,50.31
2023-03-29T03:16:40.317Z,50.56
2023-03-29T03:19:07.188Z,49.63
2023-03-29T03:21:35.068Z,50.25
2023-03-29T03:24:01.960Z,50.09
2023-03-29T03:26:30.041Z,49.09
2023-03-29T03:28:57.323Z,48.96
2023-03-29T03:31:59.378Z,48.53
2023-03-29T03:34:58.900Z,49.34
2023-03-29T03:37:27.706Z,49.50
2023-03-29T03:39:55.104Z,50.43
2023-03-29T03:42:22.991Z,51.18
2023-03-29T03:44:49.957Z,50.39
2023-03-29T03:47:46.083Z,50.23
2023-03-29T03:50:40.976Z,50.55
2023-03-29T03:53:08.400Z,50.56
2023-03-29T03:55:58.089Z,50.45
2023-03-29T03:58:31.331Z,50.24
2023-03-29T04:00:59.132Z,50.50
2023-03-29T04:03:37.652Z,50.03
2023-03-29T04:06:05.482Z,50.50
2023-03-29T04:08:52.139Z,50.66
2023-03-29T04:11:33.618Z,50.19
2023-03-29T04:14:00.421Z,50.79
2023-03-29T04:16:47.516Z,51.17
2023-03-29T04:19:37.274Z,51.01
2023-03-29T04:22:04.223Z,49.10
2023-03-29T04:24:31.423Z,50.58
2023-03-29T04:27:17.381Z,50.63
2023-03-29T04:29:44.973Z,50.77
2023-03-29T04:32:38.221Z,49.70
2023-03-29T04:35:09.325Z,51.10
2023-03-29T04:37:37.102Z,50.88
2023-03-29T04:40:09.012Z,51.31
2023-03-29T04:42:49.494Z,50.99
2023-03-29T04:45:19.173Z,50.85
2023-03-29T04:48:09.060Z,50.31
2023-03-29T04:50:38.573Z,50.35
2023-03-29T04:53:05.943Z,50.83
2023-03-29T04:55:32.863Z,51.77
2023-03-29T04:58:01.219Z,51.87
2023-03-29T05:00:35.148Z,52.58
2023-03-29T05:03:07.614Z,52.07
2023-03-29T05:05:38.499Z,52.33
2023-03-29T05:08:07.234Z,51.46
2023-03-29T05:10:44.710Z,51.93
2023-03-29T05:13:13.101Z,50.76
2023-03-29T05:15:41.713Z,51.60
2023-03-29T05:18:09.639Z,51.96
2023-03-29T05:20:37.538Z,52.59
2023-03-29T05:23:04.273Z,52.54
2023-03-29T05:25:50.151Z,52.80
2023-03-29T05:28:18.350Z,53.32
2023-03-29T05:30:46.568Z,53.13
2023-03-29T05:33:21.265Z,52.97
2023-03-29T05:35:48.138Z,53.09
2023-03-29T05:38:16.055Z,53.17
2023-03-29T05:40:43.249Z,53.27
2023-03-29T05:43:28.994Z,54.54
2023-03-29T05:45:56.677Z,54.29
2023-03-29T05:48:24.543Z,54.17
2023-03-29T05:50:53.851Z,53.92
2023-03-29T05:53:23.363Z,53.64
2023-03-29T05:55:51.270Z,54.12
2023-03-29T05:58:20.578Z,53.59
2023-03-29T06:00:49.706Z,52.93
2023-03-29T06:03:36.598Z,52.90
2023-03-29T06:06:04.415Z,54.53
2023-03-29T06:08:34.928Z,54.38
2023-03-29T06:11:27.930Z,54.81
2023-03-29T06:14:18.972Z,54.88
2023-03-29T06:16:55.103Z,53.80
2023-03-29T06:19:22.745Z,53.69
2023-03-29T06:21:50.012Z,56.29
2023-03-29T06:24:22.377Z,56.86
2023-03-29T06:26:56.393Z,56.41
2023-03-29T06:29:23.313Z,55.95
2023-03-29T06:31:50.961Z,56.54
2023-03-29T06:34:45.269Z,57.76
2023-03-29T06:37:32.695Z,57.90
2023-03-29T06:40:13.244Z,57.66
2023-03-29T06:42:45.094Z,57.58
2023-03-29T06:45:15.080Z,57.11
2023-03-29T06:47:46.932Z,56.52
2023-03-29T06:50:14.699Z,56.34
2023-03-29T06:53:00.177Z,56.71
2023-03-29T06:55:27.321Z,56.80
2023-03-29T06:57:55.203Z,56.35
2023-03-29T07:00:28.203Z,56.03
2023-03-29T07:03:20.290Z,54.58
2023-03-29T07:05:52.102Z,54.32
2023-03-29T07:08:21.297Z,55.19
2023-03-29T07:10:59.544Z,55.11
2023-03-29T07:13:44.982Z,54.25
2023-03-29T07:16:17.577Z,52.36
2023-03-29T07:18:53.435Z,51.79
2023-03-29T07:21:38.012Z,53.08
2023-03-29T07:24:06.725Z,53.19
2023-03-29T07:26:35.165Z,52.59
2023-03-29T07:29:01.950Z,51.73
2023-03-29T07:31:29.703Z,51.75
2023-03-29T07:34:13.378Z,51.69
2023-03-29T07:36:40.552Z,51.67
2023-03-29T07:39:09.184Z,51.58
2023-03-29T07:41:37.966Z,49.74
2023-03-29T07:44:12.246Z,49.12
2023-03-29T07:46:39.185Z,49.42
2023-03-29T07:49:08.135Z,48.61
2023-03-29T07:51:36.637Z,50.24
2023-03-29T07:54:08.338Z,51.45
2023-03-29T07:56:52.837Z,50.71
2023-03-29T07:59:33.506Z,49.32
2023-03-29T08:02:14.456Z,47.75
2023-03-29T08:04:44.940Z,50.09
2023-03-29T08:07:18.834Z,50.42
2023-03-29T08:10:12.174Z,50.24
2023-03-29T08:12:58.278Z,47.81
2023-03-29T08:15:39.406Z,46.83
2023-03-29T08:18:12.971Z,44.87
2023-03-29T08:20:40.516Z,45.81
2023-03-29T08:23:08.145Z,45.35
2023-03-29T08:26:08.780Z,45.26
2023-03-29T08:28:35.517Z,46.16
2023-03-29T08:31:02.321Z,45.68
2023-03-29T08:33:30.285Z,43.53
2023-03-29T08:36:17.652Z,43.67
2023-03-29T08:38:45.537Z,42.51
2023-03-29T08:41:32.856Z,41.27
2023-03-29T08:44:20.434Z,39.51
2023-03-29T08:47:23.348Z,38.67
2023-03-29T08:49:54.574Z,38.95
2023-03-29T08:52:35.877Z,38.44
2023-03-29T08:55:27.297Z,37.36
2023-03-29T08:58:18.268Z,39.65
2023-03-29T09:01:06.081Z,40.08
2023-03-29T09:03:50.639Z,39.50
2023-03-29T09:06:30.402Z,39.12
2023-03-29T09:09:22.178Z,39.23
2023-03-29T09:12:19.999Z,40.18
2023-03-29T09:15:08.775Z,37.65
2023-03-29T09:17:53.527Z,40.77
2023-03-29T09:20:27.976Z,41.82
2023-03-29T09:23:03.550Z,39.36
2023-03-29T09:26:29.162Z,39.95
2023-03-29T09:29:28.184Z,41.85
2023-03-29T09:31:56.965Z,40.13
2023-03-29T09:34:52.337Z,40.16
2023-03-29T09:37:44.564Z,38.46
2023-03-29T09:40:17.578Z,37.46
2023-03-29T09:42:58.484Z,35.26
2023-03-29T09:45:25.791Z,37.89
2023-03-29T09:48:02.818Z,37.03
2023-03-29T09:50:46.857Z,38.25
2023-03-29T09:53:16.236Z,37.00
2023-03-29T09:55:52.260Z,40.99
2023-03-29T09:59:00.856Z,38.00
2023-03-29T10:01:38.372Z,36.92
2023-03-29T10:04:09.652Z,35.11
2023-03-29T10:06:47.603Z,40.40
2023-03-29T10:09:20.237Z,36.45
2023-03-29T10:12:00.160Z,37.16
2023-03-29T10:14:30.052Z,35.21
2023-03-29T10:16:59.942Z,35.45
2023-03-29T10:19:35.298Z,33.44
2023-03-29T10:22:14.098Z,34.58
2023-03-29T10:24:48.889Z,33.39
2023-03-29T10:27:29.278Z,33.78
2023-03-29T10:30:00.560Z,33.25
2023-03-29T10:32:34.795Z,31.69
2023-03-29T10:35:20.929Z,32.86
2023-03-29T10:37:53.713Z,31.24
2023-03-29T10:40:43.245Z,33.08
2023-03-29T10:43:25.798Z,34.54
2023-03-29T10:45:57.525Z,32.13
2023-03-29T10:48:29.193Z,31.71
2023-03-29T10:51:02.795Z,30.87
2023-03-29T10:53:33.132Z,31.21
2023-03-29T10:56:18.378Z,29.10
2023-03-29T10:59:06.330Z,30.73
2023-03-29T11:01:53.141Z,32.99
2023-03-29T11:04:37.554Z,29.65
2023-03-29T11:07:34.614Z,30.86
2023-03-29T11:10:16.664Z,32.72
2023-03-29T11:13:04.638Z,31.84
2023-03-29T11:16:02.862Z,31.71
2023-03-29T11:19:11.822Z,32.45
2023-03-29T11:21:39.797Z,33.30
2023-03-29T11:24:51.738Z,30.69
2023-03-29T11:27:53.634Z,30.19
2023-03-29T11:30:36.221Z,32.58
2023-03-29T11:33:20.080Z,33.12
2023-03-29T11:36:19.864Z,31.40
2023-03-29T11:39:04.476Z,33.39
2023-03-29T11:41:35.863Z,34.06
2023-03-29T11:44:14.499Z,33.12
2023-03-29T11:46:46.776Z,30.95
2023-03-29T11:49:39.575Z,30.98
2023-03-29T11:52:17.869Z,31.73
2023-03-29T11:54:57.649Z,34.18
2023-03-29T11:57:50.338Z,33.06
2023-03-29T12:00:33.245Z,31.11
2023-03-29T12:03:28.616Z,32.41
2023-03-29T12:06:07.067Z,31.55
2023-03-29T12:08:42.613Z,31.87
2023-03-29T12:11:34.967Z,33.69
2023-03-29T12:15:05.412Z,32.38
2023-03-29T12:17:49.241Z,31.95
2023-03-29T12:20:29.673Z,30.93
2023-03-29T12:22:59.939Z,31.08
2023-03-29T12:25:37.619Z,32.05
2023-03-29T12:28:26.997Z,33.69
2023-03-29T12:31:21.651Z,31.29
2023-03-29T12:34:10.256Z,31.07
2023-03-29T12:37:44.481Z,32.58
2023-03-29T12:40:44.102Z,33.25
2023-03-29T12:43:41.641Z,32.97
2023-03-29T12:46:33.648Z,33.55
2023-03-29T12:49:16.142Z,31.15
2023-03-29T12:51:43.870Z,31.53
2023-03-29T12:54:19.925Z,33.46
2023-03-29T12:56:53.543Z,31.80
2023-03-29T12:59:38.671Z,32.39
2023-03-29T13:02:18.295Z,32.10
2023-03-29T13:04:55.494Z,32.29
2023-03-29T13:07:22.816Z,31.73
2023-03-29T13:09:56.540Z,30.19
2023-03-29T13:12:35.795Z,33.34
2023-03-29T13:15:23.124Z,31.47
2023-03-29T13:17:59.407Z,34.26
2023-03-29T13:20:47.800Z,34.50
2023-03-29T13:23:36.482Z,32.60
2023-03-29T13:26:12.616Z,32.64
2023-03-29T13:29:07.445Z,33.39
2023-03-29T13:32:05.404Z,33.36
2023-03-29T13:34:53.570Z,32.87
2023-03-29T13:37:39.471Z,33.73
2023-03-29T13:40:40.470Z,32.07
2023-03-29T13:43:22.703Z,33.17
2023-03-29T13:45:58.827Z,32.67
2023-03-29T13:48:33.540Z,29.90
2023-03-29T13:51:18.682Z,31.16
2023-03-29T13:54:08.359Z,31.95
2023-03-29T13:57:09.324Z,32.80
2023-03-29T13:59:59.450Z,31.88
2023-03-29T14:02:50.420Z,31.95
2023-03-29T14:05:28.352Z,30.54
2023-03-29T14:07:56.087Z,30.55
2023-03-29T14:10:28.071Z,29.98
2023-03-29T14:12:56.991Z,32.38
2023-03-29T14:15:42.696Z,30.68
2023-03-29T14:18:16.877Z,33.01
2023-03-29T14:20:46.622Z,31.82
2023-03-29T14:23:20.286Z,31.14
2023-03-29T14:25:47.457Z,31.71
2023-03-29T14:28:28.947Z,33.03
2023-03-29T14:30:56.688Z,31.79
2023-03-29T14:33:28.531Z,32.31
2023-03-29T14:35:57.180Z,31.92
2023-03-29T14:38:26.246Z,32.60
2023-03-29T14:40:58.146Z,32.61
2023-03-29T14:43:29.810Z,32.63
2023-03-29T14:45:58.250Z,33.40
2023-03-29T14:48:25.867Z,31.70
2023-03-29T14:50:53.300Z,32.76
2023-03-29T14:53:24.275Z,34.02
2023-03-29T14:55:53.153Z,33.10
2023-03-29T14:58:21.550Z,33.49
2023-03-29T15:00:51.166Z,33.92
2023-03-29T15:03:19.654Z,33.84
2023-03-29T15:06:05.802Z,34.00
2023-03-29T15:08:37.601Z,34.92
2023-03-29T15:11:14.285Z,35.52
2023-03-29T15:13:43.090Z,34.30
2023-03-29T15:16:14.552Z,35.42
2023-03-29T15:18:43.740Z,34.69
2023-03-29T15:21:14.989Z,35.55
2023-03-29T15:23:50.940Z,35.86
2023-03-29T15:26:23.642Z,34.82
2023-03-29T15:29:02.968Z,34.63
2023-03-29T15:31:35.442Z,34.95
2023-03-29T15:34:09.071Z,34.94
2023-03-29T15:36:42.171Z,35.02
2023-03-29T15:39:15.469Z,33.97
2023-03-29T15:41:43.727Z,33.74
2023-03-29T15:44:11.135Z,34.83
2023-03-29T15:46:38.048Z,33.44
2023-03-29T15:49:05.147Z,34.75
2023-03-29T15:51:32.088Z,35.36
2023-03-29T15:53:58.694Z,34.93
2023-03-29T15:56:27.102Z,35.68
2023-03-29T15:58:53.721Z,35.36
2023-03-29T16:01:36.770Z,35.58
2023-03-29T16:04:11.154Z,35.29
2023-03-29T16:06:38.671Z,35.14
2023-03-29T16:09:07.193Z,37.08
2023-03-29T16:11:34.384Z,37.15
2023-03-29T16:14:01.444Z,36.67
2023-03-29T16:16:28.901Z,36.21
2023-03-29T16:18:56.145Z,36.05
2023-03-29T16:21:24.503Z,37.75
2023-03-29T16:23:51.516Z,36.13
2023-03-29T16:26:18.760Z,36.35
2023-03-29T16:28:45.957Z,37.21
2023-03-29T16:31:14.028Z,36.06
2023-03-29T16:33:41.709Z,37.34
2023-03-29T16:36:09.867Z,36.52
2023-03-29T16:38:37.089Z,36.87
2023-03-29T16:41:03.964Z,36.57
2023-03-29T16:43:30.644Z,36.57
2023-03-29T16:45:57.796Z,37.80
2023-03-29T16:48:24.609Z,38.05
2023-03-29T16:50:51.699Z,37.43
2023-03-29T16:53:19.633Z,38.33
2023-03-29T16:55:47.509Z,37.56
2023-03-29T16:58:15.509Z,36.86
2023-03-29T17:00:44.999Z,37.68
2023-03-29T17:03:13.464Z,37.12
2023-03-29T17:05:41.867Z,38.60
2023-03-29T17:08:10.339Z,38.75
2023-03-29T17:10:40.832Z,38.43
2023-03-29T17:13:08.497Z,38.94
2023-03-29T17:15:39.444Z,38.72
2023-03-29T17:18:07.151Z,38.67
2023-03-29T17:20:33.841Z,39.12
2023-03-29T17:23:00.658Z,39.38
2023-03-29T17:25:27.298Z,39.54
2023-03-29T17:27:54.147Z,39.38
2023-03-29T17:30:21.191Z,38.77
2023-03-29T17:32:48.189Z,39.28
2023-03-29T17:35:14.923Z,39.42
2023-03-29T17:37:42.484Z,39.29
2023-03-29T17:40:15.302Z,39.64
2023-03-29T17:42:43.399Z,39.59
2023-03-29T17:45:11.260Z,39.94
2023-03-29T17:47:38.877Z,40.67
2023-03-29T17:50:06.761Z,41.30
2023-03-29T17:52:33.881Z,40.43
2023-03-29T17:55:00.551Z,41.59
2023-03-29T17:57:27.649Z,43.08
2023-03-29T17:59:54.278Z,43.96
2023-03-29T18:02:23.402Z,43.70
2023-03-29T18:04:50.846Z,43.06
2023-03-29T18:07:18.402Z,43.95
2023-03-29T18:09:45.542Z,44.44
2023-03-29T18:12:12.523Z,43.24
2023-03-29T18:14:39.181Z,45.11
2023-03-29T18:17:06.014Z,45.00
2023-03-29T18:19:32.617Z,43.76
2023-03-29T18:21:59.378Z,45.15
2023-03-29T18:24:26.111Z,44.87
2023-03-29T18:26:53.232Z,44.69
2023-03-29T18:29:20.026Z,45.00
2023-03-29T18:31:46.971Z,45.19
2023-03-29T18:34:13.721Z,46.14
2023-03-29T18:36:40.374Z,46.20
2023-03-29T18:39:07.039Z,46.07
2023-03-29T18:41:35.620Z,44.74
2023-03-29T18:44:02.427Z,45.82
2023-03-29T18:46:31.275Z,45.31
2023-03-29T18:49:00.534Z,45.31
2023-03-29T18:51:31.057Z,45.40
2023-03-29T18:53:57.756Z,44.50
2023-03-29T18:56:24.430Z,44.17
2023-03-29T18:58:51.640Z,44.78
2023-03-29T19:01:18.294Z,44.35
2023-03-29T19:03:45.211Z,44.78
2023-03-29T19:06:12.229Z,45.17
2023-03-29T19:08:41.206Z,44.81
2023-03-29T19:11:11.392Z,44.94
2023-03-29T19:13:38.175Z,45.40
2023-03-29T19:16:05.252Z,45.06
2023-03-29T19:18:32.932Z,46.68
2023-03-29T19:20:59.581Z,46.75
2023-03-29T19:23:28.254Z,47.42
2023-03-29T19:25:57.422Z,47.11
2023-03-29T19:28:25.998Z,47.66
2023-03-29T19:30:53.244Z,48.68
2023-03-29T19:33:20.773Z,49.47
2023-03-29T19:35:50.425Z,48.75
2023-03-29T19:38:17.662Z,48.61
2023-03-29T19:40:46.196Z,48.63
2023-03-29T19:43:19.236Z,48.49
2023-03-29T19:45:47.705Z,49.87
2023-03-29T19:48:21.823Z,48.80
2023-03-29T19:50:50.284Z,47.90
2023-03-29T19:53:16.956Z,47.73
2023-03-29T19:55:45.143Z,47.50
2023-03-29T19:58:13.055Z,47.59
2023-03-29T20:00:41.518Z,47.35
2023-03-29T20:03:11.230Z,48.58
2023-03-29T20:05:38.818Z,48.36
2023-03-29T20:08:06.752Z,48.19
2023-03-29T20:10:34.682Z,49.78
2023-03-29T20:13:02.349Z,50.35
2023-03-29T20:15:29.058Z,49.91
2023-03-29T20:17:59.399Z,50.74
2023-03-29T20:20:27.675Z,50.55
2023-03-29T20:23:04.415Z,51.60
2023-03-29T20:25:32.967Z,51.22
2023-03-29T20:27:59.668Z,51.13
2023-03-29T20:30:26.770Z,50.33
2023-03-29T20:32:53.673Z,50.40
2023-03-29T20:35:20.664Z,50.96
2023-03-29T20:37:47.543Z,50.66
2023-03-29T20:40:15.785Z,50.70
2023-03-29T20:42:42.755Z,51.09
2023-03-29T20:45:18.602Z,51.46
2023-03-29T20:47:57.691Z,51.66
2023-03-29T20:50:26.299Z,51.24
2023-03-29T20:52:56.449Z,50.66
2023-03-29T20:55:23.636Z,49.69
2023-03-29T20:57:54.158Z,50.79
2023-03-29T21:00:21.005Z,51.75
2023-03-29T21:02:47.995Z,51.06
2023-03-29T21:05:15.849Z,52.20
2023-03-29T21:07:44.702Z,52.03
2023-03-29T21:10:12.371Z,49.42
2023-03-29T21:12:40.099Z,49.94
2023-03-29T21:15:09.424Z,49.73
2023-03-29T21:17:37.308Z,49.98
2023-03-29T21:20:11.151Z,50.48
2023-03-29T21:22:39.822Z,50.53
2023-03-29T21:25:08.335Z,50.16
2023-03-29T21:27:35.424Z,50.63
2023-03-29T21:30:02.542Z,50.43
2023-03-29T21:32:29.477Z,49.80
2023-03-29T21:34:56.113Z,50.77
2023-03-29T21:37:22.979Z,51.62
2023-03-29T21:39:49.723Z,51.26
2023-03-29T21:42:16.772Z,50.68
2023-03-29T21:44:43.499Z,50.84
2023-03-29T21:47:10.710Z,50.98
2023-03-29T21:49:37.979Z,50.97
2023-03-29T21:52:04.666Z,51.07
2023-03-29T21:54:31.301Z,50.76
2023-03-29T21:56:58.034Z,51.90
2023-03-29T21:59:24.587Z,52.44
2023-03-29T22:01:51.248Z,52.48
2023-03-29T22:04:25.818Z,52.85
2023-03-29T22:06:56.305Z,54.83
2023-03-29T22:09:26.324Z,54.06
2023-03-29T22:11:53.108Z,54.94
2023-03-29T22:14:19.701Z,54.80
2023-03-29T22:16:47.059Z,55.25
2023-03-29T22:19:13.792Z,55.51
2023-03-29T22:21:40.834Z,56.12
2023-03-29T22:24:07.862Z,55.79
2023-03-29T22:26:34.918Z,55.94
2023-03-29T22:29:01.987Z,56.29
2023-03-29T22:31:29.729Z,57.31
2023-03-29T22:33:58.289Z,56.70
2023-03-29T22:36:27.831Z,56.21
2023-03-29T22:38:55.137Z,57.06
2023-03-29T22:41:23.794Z,56.83
2023-03-29T22:43:55.405Z,57.27
2023-03-29T22:46:22.526Z,56.85
2023-03-29T22:48:49.661Z,56.03
2023-03-29T22:51:16.757Z,56.97
2023-03-29T22:53:43.510Z,57.85
2023-03-29T22:56:10.430Z,58.16
2023-03-29T22:58:37.550Z,58.23
2023-03-29T23:01:05.893Z,57.54
2023-03-29T23:03:33.043Z,57.51
2023-03-29T23:06:04.292Z,58.02
2023-03-29T23:08:33.153Z,57.56
2023-03-29T23:11:00.434Z,57.93
2023-03-29T23:13:29.404Z,57.92
2023-03-29T23:15:58.833Z,57.10
2023-03-29T23:18:28.530Z,56.96
2023-03-29T23:20:57.194Z,57.13
2023-03-29T23:23:25.869Z,57.39
2023-03-29T23:25:53.315Z,56.72
2023-03-29T23:28:23.654Z,56.01
2023-03-29T23:30:57.988Z,56.30
2023-03-29T23:33:25.868Z,56.40
2023-03-29T23:35:53.363Z,56.75
2023-03-29T23:38:20.304Z,57.67
2023-03-29T23:40:58.803Z,57.69
2023-03-29T23:43:27.331Z,57.44
2023-03-29T23:45:57.899Z,58.03
2023-03-29T23:48:24.599Z,57.38
2023-03-29T23:50:51.454Z,57.85
2023-03-29T23:53:19.790Z,58.46
2023-03-29T23:55:48.268Z,58.37
2023-03-29T23:58:16.129Z,58.45
